sensor_id;sensor_type;location;lat;lon;timestamp;P1;durP1;ratioP1;P2;durP2;ratioP2
6785;SDS011;3430;51.192;6.048;2023-04-24T00:01:41;1.80;;;1.70;;
6785;SDS011;3430;51.192;6.048;2023-04-24T00:04:07;1.70;;;1.60;;
6785;SDS011;3430;51.192;6.048;2023-04-24T00:06:36;1.60;;;1.50;;
6785;SDS011;3430;51.192;6.048;2023-04-24T00:09:02;1.60;;;1.50;;
6785;SDS011;3430;51.192;6.048;2023-04-24T00:11:28;1.50;;;1.40;;
6785;SDS011;3430;51.192;6.048;2023-04-24T00:13:53;1.87;;;1.77;;
6785;SDS011;3430;51.192;6.048;2023-04-24T00:16:18;2.03;;;1.80;;
6785;SDS011;3430;51.192;6.048;2023-04-24T00:18:44;1.80;;;1.70;;
6785;SDS011;3430;51.192;6.048;2023-04-24T00:21:10;1.80;;;1.70;;
6785;SDS011;3430;51.192;6.048;2023-04-24T00:23:35;1.90;;;1.80;;
6785;SDS011;3430;51.192;6.048;2023-04-24T00:26:00;1.80;;;1.70;;
6785;SDS011;3430;51.192;6.048;2023-04-24T00:28:26;3.57;;;1.73;;
6785;SDS011;3430;51.192;6.048;2023-04-24T00:30:51;1.70;;;1.60;;
6785;SDS011;3430;51.192;6.048;2023-04-24T00:33:16;1.90;;;1.80;;
6785;SDS011;3430;51.192;6.048;2023-04-24T00:35:42;1.77;;;1.67;;
6785;SDS011;3430;51.192;6.048;2023-04-24T00:38:07;1.80;;;1.70;;
6785;SDS011;3430;51.192;6.048;2023-04-24T00:40:32;1.80;;;1.70;;
6785;SDS011;3430;51.192;6.048;2023-04-24T00:42:57;2.00;;;1.90;;
6785;SDS011;3430;51.192;6.048;2023-04-24T00:45:23;2.07;;;1.93;;
6785;SDS011;3430;51.192;6.048;2023-04-24T00:47:48;2.40;;;1.90;;
6785;SDS011;3430;51.192;6.048;2023-04-24T00:50:14;1.80;;;1.70;;
6785;SDS011;3430;51.192;6.048;2023-04-24T00:52:40;2.27;;;1.70;;
6785;SDS011;3430;51.192;6.048;2023-04-24T00:55:06;1.90;;;1.80;;
6785;SDS011;3430;51.192;6.048;2023-04-24T00:57:32;3.33;;;2.03;;
6785;SDS011;3430;51.192;6.048;2023-04-24T00:59:57;1.97;;;1.87;;
6785;SDS011;3430;51.192;6.048;2023-04-24T01:02:23;2.40;;;1.80;;
6785;SDS011;3430;51.192;6.048;2023-04-24T01:04:52;2.20;;;2.00;;
6785;SDS011;3430;51.192;6.048;2023-04-24T01:07:20;1.80;;;1.70;;
6785;SDS011;3430;51.192;6.048;2023-04-24T01:09:46;2.20;;;2.00;;
6785;SDS011;3430;51.192;6.048;2023-04-24T01:12:13;1.80;;;1.60;;
6785;SDS011;3430;51.192;6.048;2023-04-24T01:14:39;1.80;;;1.70;;
6785;SDS011;3430;51.192;6.048;2023-04-24T01:17:04;2.60;;;1.93;;
6785;SDS011;3430;51.192;6.048;2023-04-24T01:19:30;2.03;;;1.93;;
6785;SDS011;3430;51.192;6.048;2023-04-24T01:21:57;2.07;;;1.93;;
6785;SDS011;3430;51.192;6.048;2023-04-24T01:24:23;2.27;;;2.07;;
6785;SDS011;3430;51.192;6.048;2023-04-24T01:26:48;1.90;;;1.80;;
6785;SDS011;3430;51.192;6.048;2023-04-24T01:29:13;1.90;;;1.80;;
6785;SDS011;3430;51.192;6.048;2023-04-24T01:31:39;2.03;;;1.93;;
6785;SDS011;3430;51.192;6.048;2023-04-24T01:34:05;2.00;;;1.90;;
6785;SDS011;3430;51.192;6.048;2023-04-24T01:36:30;2.10;;;2.00;;
6785;SDS011;3430;51.192;6.048;2023-04-24T01:38:57;2.10;;;1.90;;
6785;SDS011;3430;51.192;6.048;2023-04-24T01:41:22;2.43;;;2.00;;
6785;SDS011;3430;51.192;6.048;2023-04-24T01:43:48;1.93;;;1.83;;
6785;SDS011;3430;51.192;6.048;2023-04-24T01:46:13;2.00;;;1.90;;
6785;SDS011;3430;51.192;6.048;2023-04-24T01:48:39;2.00;;;1.90;;
6785;SDS011;3430;51.192;6.048;2023-04-24T01:51:04;2.17;;;2.00;;
6785;SDS011;3430;51.192;6.048;2023-04-24T01:53:30;2.03;;;1.93;;
6785;SDS011;3430;51.192;6.048;2023-04-24T01:55:55;2.40;;;2.20;;
6785;SDS011;3430;51.192;6.048;2023-04-24T01:58:20;2.10;;;2.00;;
6785;SDS011;3430;51.192;6.048;2023-04-24T02:00:46;2.00;;;1.90;;
6785;SDS011;3430;51.192;6.048;2023-04-24T02:03:11;2.40;;;2.20;;
6785;SDS011;3430;51.192;6.048;2023-04-24T02:05:36;2.23;;;2.10;;
6785;SDS011;3430;51.192;6.048;2023-04-24T02:08:02;2.40;;;2.20;;
6785;SDS011;3430;51.192;6.048;2023-04-24T02:10:27;2.03;;;1.90;;
6785;SDS011;3430;51.192;6.048;2023-04-24T02:12:52;2.20;;;2.00;;
6785;SDS011;3430;51.192;6.048;2023-04-24T02:15:18;2.60;;;2.40;;
6785;SDS011;3430;51.192;6.048;2023-04-24T02:17:43;2.33;;;2.17;;
6785;SDS011;3430;51.192;6.048;2023-04-24T02:20:09;2.23;;;2.00;;
6785;SDS011;3430;51.192;6.048;2023-04-24T02:22:34;3.33;;;2.27;;
6785;SDS011;3430;51.192;6.048;2023-04-24T02:25:00;2.40;;;2.20;;
6785;SDS011;3430;51.192;6.048;2023-04-24T02:27:25;2.07;;;1.90;;
6785;SDS011;3430;51.192;6.048;2023-04-24T02:29:51;2.40;;;2.20;;
6785;SDS011;3430;51.192;6.048;2023-04-24T02:32:16;2.30;;;2.10;;
6785;SDS011;3430;51.192;6.048;2023-04-24T02:34:41;2.03;;;1.93;;
6785;SDS011;3430;51.192;6.048;2023-04-24T02:37:07;2.33;;;2.13;;
6785;SDS011;3430;51.192;6.048;2023-04-24T02:39:32;2.10;;;1.90;;
6785;SDS011;3430;51.192;6.048;2023-04-24T02:41:57;2.43;;;2.17;;
6785;SDS011;3430;51.192;6.048;2023-04-24T02:44:23;2.93;;;2.40;;
6785;SDS011;3430;51.192;6.048;2023-04-24T02:46:48;2.40;;;2.20;;
6785;SDS011;3430;51.192;6.048;2023-04-24T02:49:14;2.50;;;2.30;;
6785;SDS011;3430;51.192;6.048;2023-04-24T02:51:39;2.23;;;2.03;;
6785;SDS011;3430;51.192;6.048;2023-04-24T02:54:06;2.73;;;2.27;;
6785;SDS011;3430;51.192;6.048;2023-04-24T02:56:32;3.57;;;2.57;;
6785;SDS011;3430;51.192;6.048;2023-04-24T02:58:57;2.37;;;2.17;;
6785;SDS011;3430;51.192;6.048;2023-04-24T03:01:23;3.07;;;2.13;;
6785;SDS011;3430;51.192;6.048;2023-04-24T03:03:48;3.03;;;2.50;;
6785;SDS011;3430;51.192;6.048;2023-04-24T03:06:14;3.30;;;2.27;;
6785;SDS011;3430;51.192;6.048;2023-04-24T03:08:40;3.00;;;2.70;;
6785;SDS011;3430;51.192;6.048;2023-04-24T03:11:05;3.53;;;2.37;;
6785;SDS011;3430;51.192;6.048;2023-04-24T03:13:31;2.60;;;2.40;;
6785;SDS011;3430;51.192;6.048;2023-04-24T03:15:56;2.20;;;2.10;;
6785;SDS011;3430;51.192;6.048;2023-04-24T03:18:21;2.23;;;2.03;;
6785;SDS011;3430;51.192;6.048;2023-04-24T03:20:46;3.67;;;2.10;;
6785;SDS011;3430;51.192;6.048;2023-04-24T03:23:12;3.63;;;2.40;;
6785;SDS011;3430;51.192;6.048;2023-04-24T03:25:37;2.43;;;2.23;;
6785;SDS011;3430;51.192;6.048;2023-04-24T03:28:02;2.13;;;2.03;;
6785;SDS011;3430;51.192;6.048;2023-04-24T03:30:28;3.23;;;2.40;;
6785;SDS011;3430;51.192;6.048;2023-04-24T03:32:53;2.47;;;2.27;;
6785;SDS011;3430;51.192;6.048;2023-04-24T03:35:18;5.23;;;2.90;;
6785;SDS011;3430;51.192;6.048;2023-04-24T03:37:44;2.33;;;2.20;;
6785;SDS011;3430;51.192;6.048;2023-04-24T03:40:09;3.10;;;2.67;;
6785;SDS011;3430;51.192;6.048;2023-04-24T03:42:34;3.20;;;2.73;;
6785;SDS011;3430;51.192;6.048;2023-04-24T03:45:00;2.77;;;2.57;;
6785;SDS011;3430;51.192;6.048;2023-04-24T03:47:25;2.40;;;2.20;;
6785;SDS011;3430;51.192;6.048;2023-04-24T03:49:50;3.30;;;2.20;;
6785;SDS011;3430;51.192;6.048;2023-04-24T03:52:16;2.60;;;2.40;;
6785;SDS011;3430;51.192;6.048;2023-04-24T03:54:41;2.80;;;2.60;;
6785;SDS011;3430;51.192;6.048;2023-04-24T03:57:06;3.10;;;2.60;;
6785;SDS011;3430;51.192;6.048;2023-04-24T03:59:32;2.60;;;2.40;;
6785;SDS011;3430;51.192;6.048;2023-04-24T04:01:57;2.60;;;2.40;;
6785;SDS011;3430;51.192;6.048;2023-04-24T04:04:23;3.03;;;2.47;;
6785;SDS011;3430;51.192;6.048;2023-04-24T04:06:48;2.83;;;2.63;;
6785;SDS011;3430;51.192;6.048;2023-04-24T04:09:14;3.10;;;2.30;;
6785;SDS011;3430;51.192;6.048;2023-04-24T04:11:39;3.40;;;2.50;;
6785;SDS011;3430;51.192;6.048;2023-04-24T04:14:04;4.03;;;2.70;;
6785;SDS011;3430;51.192;6.048;2023-04-24T04:16:30;2.93;;;2.63;;
6785;SDS011;3430;51.192;6.048;2023-04-24T04:18:55;4.37;;;2.50;;
6785;SDS011;3430;51.192;6.048;2023-04-24T04:21:21;2.90;;;2.70;;
6785;SDS011;3430;51.192;6.048;2023-04-24T04:23:46;2.70;;;2.50;;
6785;SDS011;3430;51.192;6.048;2023-04-24T04:26:12;3.80;;;2.47;;
6785;SDS011;3430;51.192;6.048;2023-04-24T04:28:37;2.30;;;2.13;;
6785;SDS011;3430;51.192;6.048;2023-04-24T04:31:04;2.97;;;2.77;;
6785;SDS011;3430;51.192;6.048;2023-04-24T04:33:29;2.80;;;2.43;;
6785;SDS011;3430;51.192;6.048;2023-04-24T04:35:54;3.67;;;2.40;;
6785;SDS011;3430;51.192;6.048;2023-04-24T04:38:21;2.77;;;2.57;;
6785;SDS011;3430;51.192;6.048;2023-04-24T04:40:47;3.00;;;2.77;;
6785;SDS011;3430;51.192;6.048;2023-04-24T04:43:12;2.60;;;2.33;;
6785;SDS011;3430;51.192;6.048;2023-04-24T04:45:41;4.17;;;2.70;;
6785;SDS011;3430;51.192;6.048;2023-04-24T04:48:07;2.60;;;2.40;;
6785;SDS011;3430;51.192;6.048;2023-04-24T04:50:34;2.90;;;2.53;;
6785;SDS011;3430;51.192;6.048;2023-04-24T04:52:59;3.33;;;2.70;;
6785;SDS011;3430;51.192;6.048;2023-04-24T04:55:25;3.70;;;2.63;;
6785;SDS011;3430;51.192;6.048;2023-04-24T04:57:50;3.27;;;2.50;;
6785;SDS011;3430;51.192;6.048;2023-04-24T05:00:16;2.83;;;2.60;;
6785;SDS011;3430;51.192;6.048;2023-04-24T05:02:41;2.43;;;2.23;;
6785;SDS011;3430;51.192;6.048;2023-04-24T05:05:07;2.73;;;2.53;;
6785;SDS011;3430;51.192;6.048;2023-04-24T05:07:32;2.80;;;2.60;;
6785;SDS011;3430;51.192;6.048;2023-04-24T05:09:57;2.67;;;2.47;;
6785;SDS011;3430;51.192;6.048;2023-04-24T05:12:23;2.60;;;2.40;;
6785;SDS011;3430;51.192;6.048;2023-04-24T05:14:48;3.80;;;2.30;;
6785;SDS011;3430;51.192;6.048;2023-04-24T05:17:13;2.47;;;2.27;;
6785;SDS011;3430;51.192;6.048;2023-04-24T05:19:39;3.63;;;2.80;;
6785;SDS011;3430;51.192;6.048;2023-04-24T05:22:04;2.63;;;2.30;;
6785;SDS011;3430;51.192;6.048;2023-04-24T05:24:32;2.73;;;2.40;;
6785;SDS011;3430;51.192;6.048;2023-04-24T05:26:58;2.40;;;2.20;;
6785;SDS011;3430;51.192;6.048;2023-04-24T05:29:23;2.80;;;2.60;;
6785;SDS011;3430;51.192;6.048;2023-04-24T05:31:52;2.70;;;2.50;;
6785;SDS011;3430;51.192;6.048;2023-04-24T05:34:17;3.20;;;2.80;;
6785;SDS011;3430;51.192;6.048;2023-04-24T05:36:42;2.97;;;2.30;;
6785;SDS011;3430;51.192;6.048;2023-04-24T05:39:08;3.53;;;2.47;;
6785;SDS011;3430;51.192;6.048;2023-04-24T05:41:33;3.00;;;2.70;;
6785;SDS011;3430;51.192;6.048;2023-04-24T05:43:59;3.07;;;2.47;;
6785;SDS011;3430;51.192;6.048;2023-04-24T05:46:24;3.10;;;2.20;;
6785;SDS011;3430;51.192;6.048;2023-04-24T05:48:49;3.17;;;2.80;;
6785;SDS011;3430;51.192;6.048;2023-04-24T05:51:15;3.20;;;2.50;;
6785;SDS011;3430;51.192;6.048;2023-04-24T05:53:40;2.70;;;2.50;;
6785;SDS011;3430;51.192;6.048;2023-04-24T05:56:05;3.10;;;2.60;;
6785;SDS011;3430;51.192;6.048;2023-04-24T05:58:31;3.20;;;2.30;;
6785;SDS011;3430;51.192;6.048;2023-04-24T06:00:56;4.47;;;2.60;;
6785;SDS011;3430;51.192;6.048;2023-04-24T06:03:23;3.80;;;2.47;;
6785;SDS011;3430;51.192;6.048;2023-04-24T06:05:49;2.50;;;2.30;;
6785;SDS011;3430;51.192;6.048;2023-04-24T06:08:15;4.03;;;2.40;;
6785;SDS011;3430;51.192;6.048;2023-04-24T06:10:40;3.10;;;2.20;;
6785;SDS011;3430;51.192;6.048;2023-04-24T06:13:06;2.40;;;2.20;;
6785;SDS011;3430;51.192;6.048;2023-04-24T06:15:33;2.50;;;2.30;;
6785;SDS011;3430;51.192;6.048;2023-04-24T06:17:58;2.57;;;2.37;;
6785;SDS011;3430;51.192;6.048;2023-04-24T06:20:24;3.00;;;2.37;;
6785;SDS011;3430;51.192;6.048;2023-04-24T06:22:49;2.30;;;2.10;;
6785;SDS011;3430;51.192;6.048;2023-04-24T06:25:15;3.33;;;2.13;;
6785;SDS011;3430;51.192;6.048;2023-04-24T06:27:40;2.70;;;2.50;;
6785;SDS011;3430;51.192;6.048;2023-04-24T06:30:06;2.60;;;2.40;;
6785;SDS011;3430;51.192;6.048;2023-04-24T06:32:32;2.40;;;2.13;;
6785;SDS011;3430;51.192;6.048;2023-04-24T06:34:57;2.13;;;1.97;;
6785;SDS011;3430;51.192;6.048;2023-04-24T06:37:22;2.90;;;2.57;;
6785;SDS011;3430;51.192;6.048;2023-04-24T06:39:48;3.17;;;2.23;;
6785;SDS011;3430;51.192;6.048;2023-04-24T06:42:13;3.50;;;2.20;;
6785;SDS011;3430;51.192;6.048;2023-04-24T06:44:38;3.97;;;2.53;;
6785;SDS011;3430;51.192;6.048;2023-04-24T06:47:09;2.60;;;2.40;;
6785;SDS011;3430;51.192;6.048;2023-04-24T06:49:37;4.77;;;2.67;;
6785;SDS011;3430;51.192;6.048;2023-04-24T06:52:03;2.57;;;2.17;;
6785;SDS011;3430;51.192;6.048;2023-04-24T06:54:28;3.27;;;2.47;;
6785;SDS011;3430;51.192;6.048;2023-04-24T06:56:54;2.47;;;2.20;;
6785;SDS011;3430;51.192;6.048;2023-04-24T06:59:20;2.53;;;2.40;;
6785;SDS011;3430;51.192;6.048;2023-04-24T07:01:45;3.23;;;2.43;;
6785;SDS011;3430;51.192;6.048;2023-04-24T07:04:10;2.60;;;2.40;;
6785;SDS011;3430;51.192;6.048;2023-04-24T07:06:37;2.40;;;2.20;;
6785;SDS011;3430;51.192;6.048;2023-04-24T07:09:02;2.20;;;2.10;;
6785;SDS011;3430;51.192;6.048;2023-04-24T07:11:28;2.13;;;2.03;;
6785;SDS011;3430;51.192;6.048;2023-04-24T07:13:54;5.40;;;2.47;;
6785;SDS011;3430;51.192;6.048;2023-04-24T07:16:19;2.40;;;2.20;;
6785;SDS011;3430;51.192;6.048;2023-04-24T07:18:45;2.43;;;2.23;;
6785;SDS011;3430;51.192;6.048;2023-04-24T07:21:10;2.30;;;2.10;;
6785;SDS011;3430;51.192;6.048;2023-04-24T07:23:36;2.40;;;2.20;;
6785;SDS011;3430;51.192;6.048;2023-04-24T07:26:01;2.73;;;2.33;;
6785;SDS011;3430;51.192;6.048;2023-04-24T07:28:27;2.73;;;2.10;;
6785;SDS011;3430;51.192;6.048;2023-04-24T07:30:55;2.57;;;2.37;;
6785;SDS011;3430;51.192;6.048;2023-04-24T07:33:21;2.53;;;1.90;;
6785;SDS011;3430;51.192;6.048;2023-04-24T07:35:46;3.13;;;2.47;;
6785;SDS011;3430;51.192;6.048;2023-04-24T07:38:11;4.07;;;2.30;;
6785;SDS011;3430;51.192;6.048;2023-04-24T07:40:37;2.40;;;2.07;;
6785;SDS011;3430;51.192;6.048;2023-04-24T07:43:03;2.10;;;2.00;;
6785;SDS011;3430;51.192;6.048;2023-04-24T07:45:28;2.53;;;2.33;;
6785;SDS011;3430;51.192;6.048;2023-04-24T07:47:53;2.87;;;2.37;;
6785;SDS011;3430;51.192;6.048;2023-04-24T07:50:19;2.40;;;2.20;;
6785;SDS011;3430;51.192;6.048;2023-04-24T07:52:44;2.60;;;2.40;;
6785;SDS011;3430;51.192;6.048;2023-04-24T07:55:09;2.67;;;2.47;;
6785;SDS011;3430;51.192;6.048;2023-04-24T07:57:35;2.40;;;2.20;;
6785;SDS011;3430;51.192;6.048;2023-04-24T08:00:02;3.73;;;2.30;;
6785;SDS011;3430;51.192;6.048;2023-04-24T08:02:27;2.43;;;2.20;;
6785;SDS011;3430;51.192;6.048;2023-04-24T08:04:53;2.47;;;2.27;;
6785;SDS011;3430;51.192;6.048;2023-04-24T08:07:19;2.17;;;1.97;;
6785;SDS011;3430;51.192;6.048;2023-04-24T08:09:44;2.40;;;2.20;;
6785;SDS011;3430;51.192;6.048;2023-04-24T08:12:09;3.00;;;2.17;;
6785;SDS011;3430;51.192;6.048;2023-04-24T08:14:35;3.17;;;2.10;;
6785;SDS011;3430;51.192;6.048;2023-04-24T08:17:00;2.53;;;2.23;;
6785;SDS011;3430;51.192;6.048;2023-04-24T08:19:26;2.40;;;2.20;;
6785;SDS011;3430;51.192;6.048;2023-04-24T08:21:51;3.27;;;2.00;;
6785;SDS011;3430;51.192;6.048;2023-04-24T08:24:17;2.00;;;1.90;;
6785;SDS011;3430;51.192;6.048;2023-04-24T08:26:42;2.53;;;2.33;;
6785;SDS011;3430;51.192;6.048;2023-04-24T08:29:07;2.30;;;2.10;;
6785;SDS011;3430;51.192;6.048;2023-04-24T08:31:33;2.50;;;2.30;;
6785;SDS011;3430;51.192;6.048;2023-04-24T08:33:58;3.03;;;2.30;;
6785;SDS011;3430;51.192;6.048;2023-04-24T08:36:24;2.40;;;2.20;;
6785;SDS011;3430;51.192;6.048;2023-04-24T08:38:50;2.43;;;2.23;;
6785;SDS011;3430;51.192;6.048;2023-04-24T08:41:15;2.33;;;2.13;;
6785;SDS011;3430;51.192;6.048;2023-04-24T08:43:42;3.10;;;2.47;;
6785;SDS011;3430;51.192;6.048;2023-04-24T08:46:08;2.70;;;2.50;;
6785;SDS011;3430;51.192;6.048;2023-04-24T08:48:35;2.43;;;2.27;;
6785;SDS011;3430;51.192;6.048;2023-04-24T08:51:01;2.57;;;2.37;;
6785;SDS011;3430;51.192;6.048;2023-04-24T08:53:27;2.47;;;2.17;;
6785;SDS011;3430;51.192;6.048;2023-04-24T08:55:54;2.47;;;2.10;;
6785;SDS011;3430;51.192;6.048;2023-04-24T08:58:19;2.70;;;2.50;;
6785;SDS011;3430;51.192;6.048;2023-04-24T09:00:44;3.27;;;2.73;;
6785;SDS011;3430;51.192;6.048;2023-04-24T09:03:12;2.90;;;2.53;;
6785;SDS011;3430;51.192;6.048;2023-04-24T09:05:38;2.80;;;2.60;;
6785;SDS011;3430;51.192;6.048;2023-04-24T09:08:05;2.67;;;2.47;;
6785;SDS011;3430;51.192;6.048;2023-04-24T09:10:32;2.60;;;2.40;;
6785;SDS011;3430;51.192;6.048;2023-04-24T09:12:59;2.40;;;2.20;;
6785;SDS011;3430;51.192;6.048;2023-04-24T09:15:27;2.60;;;2.37;;
6785;SDS011;3430;51.192;6.048;2023-04-24T09:17:52;2.60;;;2.40;;
6785;SDS011;3430;51.192;6.048;2023-04-24T09:20:18;3.37;;;2.43;;
6785;SDS011;3430;51.192;6.048;2023-04-24T09:22:43;2.73;;;2.53;;
6785;SDS011;3430;51.192;6.048;2023-04-24T09:25:10;2.77;;;2.57;;
6785;SDS011;3430;51.192;6.048;2023-04-24T09:27:38;2.57;;;2.30;;
6785;SDS011;3430;51.192;6.048;2023-04-24T09:30:06;3.23;;;2.73;;
6785;SDS011;3430;51.192;6.048;2023-04-24T09:32:32;2.50;;;2.30;;
6785;SDS011;3430;51.192;6.048;2023-04-24T09:35:13;2.50;;;2.30;;
6785;SDS011;3430;51.192;6.048;2023-04-24T09:37:40;2.50;;;2.30;;
6785;SDS011;3430;51.192;6.048;2023-04-24T09:42:36;3.57;;;2.30;;
6785;SDS011;3430;51.192;6.048;2023-04-24T09:45:02;2.87;;;2.30;;
6785;SDS011;3430;51.192;6.048;2023-04-24T09:47:27;3.47;;;2.27;;
6785;SDS011;3430;51.192;6.048;2023-04-24T09:49:57;3.53;;;2.40;;
6785;SDS011;3430;51.192;6.048;2023-04-24T09:52:22;2.83;;;2.50;;
6785;SDS011;3430;51.192;6.048;2023-04-24T09:54:53;3.23;;;2.60;;
6785;SDS011;3430;51.192;6.048;2023-04-24T09:57:18;3.10;;;2.80;;
6785;SDS011;3430;51.192;6.048;2023-04-24T09:59:45;3.03;;;2.43;;
6785;SDS011;3430;51.192;6.048;2023-04-24T10:02:17;2.30;;;2.10;;
6785;SDS011;3430;51.192;6.048;2023-04-24T10:04:53;3.13;;;2.33;;
6785;SDS011;3430;51.192;6.048;2023-04-24T10:07:20;2.77;;;2.57;;
6785;SDS011;3430;51.192;6.048;2023-04-24T10:09:45;2.80;;;2.53;;
6785;SDS011;3430;51.192;6.048;2023-04-24T10:12:11;4.47;;;2.90;;
6785;SDS011;3430;51.192;6.048;2023-04-24T10:14:37;2.80;;;2.60;;
6785;SDS011;3430;51.192;6.048;2023-04-24T10:17:03;2.60;;;2.40;;
6785;SDS011;3430;51.192;6.048;2023-04-24T10:19:29;2.57;;;2.37;;
6785;SDS011;3430;51.192;6.048;2023-04-24T10:21:54;4.43;;;2.90;;
6785;SDS011;3430;51.192;6.048;2023-04-24T10:24:21;4.90;;;2.50;;
6785;SDS011;3430;51.192;6.048;2023-04-24T10:26:46;2.63;;;2.43;;
6785;SDS011;3430;51.192;6.048;2023-04-24T10:29:13;3.80;;;2.97;;
6785;SDS011;3430;51.192;6.048;2023-04-24T10:31:43;2.73;;;2.47;;
6785;SDS011;3430;51.192;6.048;2023-04-24T10:34:12;2.83;;;2.63;;
6785;SDS011;3430;51.192;6.048;2023-04-24T10:36:41;4.73;;;2.70;;
6785;SDS011;3430;51.192;6.048;2023-04-24T10:39:08;2.73;;;2.53;;
6785;SDS011;3430;51.192;6.048;2023-04-24T10:41:36;3.63;;;2.70;;
6785;SDS011;3430;51.192;6.048;2023-04-24T10:44:09;2.90;;;2.70;;
6785;SDS011;3430;51.192;6.048;2023-04-24T10:46:37;3.33;;;2.60;;
6785;SDS011;3430;51.192;6.048;2023-04-24T10:49:03;4.40;;;2.63;;
6785;SDS011;3430;51.192;6.048;2023-04-24T10:59:42;3.27;;;2.97;;
6785;SDS011;3430;51.192;6.048;2023-04-24T11:02:08;3.50;;;2.60;;
6785;SDS011;3430;51.192;6.048;2023-04-24T11:04:34;2.87;;;2.40;;
6785;SDS011;3430;51.192;6.048;2023-04-24T11:07:02;2.40;;;2.20;;
6785;SDS011;3430;51.192;6.048;2023-04-24T11:09:28;2.53;;;2.33;;
6785;SDS011;3430;51.192;6.048;2023-04-24T11:12:11;3.13;;;2.50;;
6785;SDS011;3430;51.192;6.048;2023-04-24T11:17:28;2.67;;;2.40;;
6785;SDS011;3430;51.192;6.048;2023-04-24T11:19:53;4.10;;;2.40;;
6785;SDS011;3430;51.192;6.048;2023-04-24T11:22:25;2.63;;;2.43;;
6785;SDS011;3430;51.192;6.048;2023-04-24T11:24:53;2.73;;;2.50;;
6785;SDS011;3430;51.192;6.048;2023-04-24T11:27:21;2.80;;;2.60;;
6785;SDS011;3430;51.192;6.048;2023-04-24T11:34:51;3.00;;;2.63;;
6785;SDS011;3430;51.192;6.048;2023-04-24T11:37:16;3.47;;;2.50;;
6785;SDS011;3430;51.192;6.048;2023-04-24T11:39:42;3.27;;;2.63;;
6785;SDS011;3430;51.192;6.048;2023-04-24T11:42:08;8.93;;;2.63;;
6785;SDS011;3430;51.192;6.048;2023-04-24T11:44:34;3.43;;;2.67;;
6785;SDS011;3430;51.192;6.048;2023-04-24T11:47:00;3.10;;;2.70;;
6785;SDS011;3430;51.192;6.048;2023-04-24T11:49:25;2.97;;;2.67;;
6785;SDS011;3430;51.192;6.048;2023-04-24T11:51:54;2.73;;;2.50;;
6785;SDS011;3430;51.192;6.048;2023-04-24T11:54:20;2.60;;;2.40;;
6785;SDS011;3430;51.192;6.048;2023-04-24T11:56:46;3.40;;;2.90;;
6785;SDS011;3430;51.192;6.048;2023-04-24T11:59:11;2.93;;;2.50;;
6785;SDS011;3430;51.192;6.048;2023-04-24T12:01:43;3.80;;;2.87;;
6785;SDS011;3430;51.192;6.048;2023-04-24T12:04:09;2.60;;;2.40;;
6785;SDS011;3430;51.192;6.048;2023-04-24T12:06:34;5.07;;;2.77;;
6785;SDS011;3430;51.192;6.048;2023-04-24T12:08:59;3.17;;;2.40;;
6785;SDS011;3430;51.192;6.048;2023-04-24T12:11:25;3.03;;;2.73;;
6785;SDS011;3430;51.192;6.048;2023-04-24T12:13:50;2.60;;;2.37;;
6785;SDS011;3430;51.192;6.048;2023-04-24T12:16:16;3.23;;;3.00;;
6785;SDS011;3430;51.192;6.048;2023-04-24T12:18:44;5.83;;;2.60;;
6785;SDS011;3430;51.192;6.048;2023-04-24T12:23:42;3.60;;;2.80;;
6785;SDS011;3430;51.192;6.048;2023-04-24T12:26:08;3.67;;;2.73;;
6785;SDS011;3430;51.192;6.048;2023-04-24T12:28:34;4.37;;;2.90;;
6785;SDS011;3430;51.192;6.048;2023-04-24T12:31:00;2.73;;;2.53;;
6785;SDS011;3430;51.192;6.048;2023-04-24T12:33:25;2.43;;;2.33;;
6785;SDS011;3430;51.192;6.048;2023-04-24T12:35:52;2.60;;;2.40;;
6785;SDS011;3430;51.192;6.048;2023-04-24T12:38:25;4.83;;;2.80;;
6785;SDS011;3430;51.192;6.048;2023-04-24T12:41:01;2.53;;;2.33;;
6785;SDS011;3430;51.192;6.048;2023-04-24T12:43:26;3.43;;;2.77;;
6785;SDS011;3430;51.192;6.048;2023-04-24T12:45:52;4.73;;;2.80;;
6785;SDS011;3430;51.192;6.048;2023-04-24T12:48:17;3.83;;;2.80;;
6785;SDS011;3430;51.192;6.048;2023-04-24T12:50:42;3.70;;;2.77;;
6785;SDS011;3430;51.192;6.048;2023-04-24T12:53:08;3.17;;;2.87;;
6785;SDS011;3430;51.192;6.048;2023-04-24T12:55:34;3.47;;;3.13;;
6785;SDS011;3430;51.192;6.048;2023-04-24T12:58:02;3.50;;;2.43;;
6785;SDS011;3430;51.192;6.048;2023-04-24T13:00:36;2.90;;;2.60;;
6785;SDS011;3430;51.192;6.048;2023-04-24T13:03:14;2.90;;;2.60;;
6785;SDS011;3430;51.192;6.048;2023-04-24T13:05:41;3.13;;;2.83;;
6785;SDS011;3430;51.192;6.048;2023-04-24T13:08:07;3.60;;;2.97;;
6785;SDS011;3430;51.192;6.048;2023-04-24T13:10:43;2.93;;;2.73;;
6785;SDS011;3430;51.192;6.048;2023-04-24T13:13:09;3.03;;;2.67;;
6785;SDS011;3430;51.192;6.048;2023-04-24T13:15:34;2.87;;;2.67;;
6785;SDS011;3430;51.192;6.048;2023-04-24T13:18:00;3.33;;;2.63;;
6785;SDS011;3430;51.192;6.048;2023-04-24T13:20:28;3.13;;;2.87;;
6785;SDS011;3430;51.192;6.048;2023-04-24T13:22:57;3.57;;;2.97;;
6785;SDS011;3430;51.192;6.048;2023-04-24T13:25:27;4.57;;;3.07;;
6785;SDS011;3430;51.192;6.048;2023-04-24T13:27:53;3.53;;;3.20;;
6785;SDS011;3430;51.192;6.048;2023-04-24T13:30:18;4.93;;;3.17;;
6785;SDS011;3430;51.192;6.048;2023-04-24T13:32:43;2.60;;;2.40;;
6785;SDS011;3430;51.192;6.048;2023-04-24T13:35:09;6.10;;;2.60;;
6785;SDS011;3430;51.192;6.048;2023-04-24T13:37:34;3.00;;;2.70;;
6785;SDS011;3430;51.192;6.048;2023-04-24T13:40:00;5.23;;;3.07;;
6785;SDS011;3430;51.192;6.048;2023-04-24T13:42:25;4.20;;;2.73;;
6785;SDS011;3430;51.192;6.048;2023-04-24T13:44:50;5.17;;;2.93;;
6785;SDS011;3430;51.192;6.048;2023-04-24T13:47:16;6.27;;;2.60;;
6785;SDS011;3430;51.192;6.048;2023-04-24T13:49:41;3.27;;;2.90;;
6785;SDS011;3430;51.192;6.048;2023-04-24T13:52:06;3.03;;;2.73;;
6785;SDS011;3430;51.192;6.048;2023-04-24T13:54:32;4.37;;;3.23;;
6785;SDS011;3430;51.192;6.048;2023-04-24T13:56:57;3.40;;;2.73;;
6785;SDS011;3430;51.192;6.048;2023-04-24T13:59:23;3.07;;;2.77;;
6785;SDS011;3430;51.192;6.048;2023-04-24T14:01:48;2.93;;;2.73;;
6785;SDS011;3430;51.192;6.048;2023-04-24T14:04:14;2.60;;;2.40;;
6785;SDS011;3430;51.192;6.048;2023-04-24T14:06:39;7.40;;;3.53;;
6785;SDS011;3430;51.192;6.048;2023-04-24T14:09:05;3.57;;;2.90;;
6785;SDS011;3430;51.192;6.048;2023-04-24T14:11:30;3.97;;;2.83;;
6785;SDS011;3430;51.192;6.048;2023-04-24T14:13:55;3.00;;;2.70;;
6785;SDS011;3430;51.192;6.048;2023-04-24T14:16:21;3.10;;;2.80;;
6785;SDS011;3430;51.192;6.048;2023-04-24T14:18:46;3.17;;;2.87;;
6785;SDS011;3430;51.192;6.048;2023-04-24T14:21:12;3.37;;;2.80;;
6785;SDS011;3430;51.192;6.048;2023-04-24T14:23:37;6.43;;;3.20;;
6785;SDS011;3430;51.192;6.048;2023-04-24T14:26:02;3.30;;;3.07;;
6785;SDS011;3430;51.192;6.048;2023-04-24T14:28:27;3.03;;;2.80;;
6785;SDS011;3430;51.192;6.048;2023-04-24T14:30:53;5.30;;;2.90;;
6785;SDS011;3430;51.192;6.048;2023-04-24T14:33:18;3.00;;;2.80;;
6785;SDS011;3430;51.192;6.048;2023-04-24T14:35:44;3.63;;;2.87;;
6785;SDS011;3430;51.192;6.048;2023-04-24T14:38:09;3.50;;;2.83;;
6785;SDS011;3430;51.192;6.048;2023-04-24T14:40:35;3.00;;;2.70;;
6785;SDS011;3430;51.192;6.048;2023-04-24T14:43:00;3.37;;;3.07;;
6785;SDS011;3430;51.192;6.048;2023-04-24T14:45:26;3.13;;;2.83;;
6785;SDS011;3430;51.192;6.048;2023-04-24T14:47:51;3.00;;;2.80;;
6785;SDS011;3430;51.192;6.048;2023-04-24T14:50:17;3.70;;;3.30;;
6785;SDS011;3430;51.192;6.048;2023-04-24T14:52:42;3.27;;;2.87;;
6785;SDS011;3430;51.192;6.048;2023-04-24T14:55:08;3.20;;;2.90;;
6785;SDS011;3430;51.192;6.048;2023-04-24T14:57:33;3.20;;;2.90;;
6785;SDS011;3430;51.192;6.048;2023-04-24T14:59:59;2.90;;;2.70;;
6785;SDS011;3430;51.192;6.048;2023-04-24T15:02:24;4.03;;;2.93;;
6785;SDS011;3430;51.192;6.048;2023-04-24T15:04:50;4.37;;;3.00;;
6785;SDS011;3430;51.192;6.048;2023-04-24T15:07:15;2.90;;;2.70;;
6785;SDS011;3430;51.192;6.048;2023-04-24T15:09:40;4.97;;;2.93;;
6785;SDS011;3430;51.192;6.048;2023-04-24T15:12:05;2.70;;;2.47;;
6785;SDS011;3430;51.192;6.048;2023-04-24T15:14:31;3.97;;;3.20;;
6785;SDS011;3430;51.192;6.048;2023-04-24T15:16:56;3.83;;;3.03;;
6785;SDS011;3430;51.192;6.048;2023-04-24T15:19:21;3.07;;;2.80;;
6785;SDS011;3430;51.192;6.048;2023-04-24T15:21:47;3.00;;;2.70;;
6785;SDS011;3430;51.192;6.048;2023-04-24T15:24:12;4.10;;;3.03;;
6785;SDS011;3430;51.192;6.048;2023-04-24T15:26:37;5.10;;;2.90;;
6785;SDS011;3430;51.192;6.048;2023-04-24T15:29:02;3.57;;;3.27;;